Time;durP1;ratioP1;P1;durP2;ratioP2;P2;SDS_P1;SDS_P2;PMS_P1;PMS_P2;Temp;Humidity;BMP_temperature;BMP_pressure;BME280_temperature;BME280_humidity;BME280_pressure;Samples;Min_cycle;Max_cycle;Signal;HPM_P1;HPM_P2
2021/01/09 00:01:26;;;;;;;14.70;10.68;;;;;;;3.24;64.29;100383.12;1696045;82;21150;-43
2021/01/09 00:03:54;;;;;;;16.15;11.95;;;;;;;3.22;64.41;100387.11;1697254;82;21541;-39
2021/01/09 00:06:21;;;;;;;20.20;12.53;;;;;;;3.24;64.43;100386.61;1697668;84;21546;-40
2021/01/09 00:08:49;;;;;;;15.10;11.30;;;;;;;3.25;64.49;100389.67;1693932;82;21166;-39
2021/01/09 00:11:16;;;;;;;15.50;11.73;;;;;;;3.27;64.46;100386.97;1695657;84;21435;-43
2021/01/09 00:13:44;;;;;;;15.65;12.73;;;;;;;3.27;64.50;100388.29;1701744;82;21196;-42
2021/01/09 00:16:11;;;;;;;18.95;13.15;;;;;;;3.27;64.48;100384.34;1714321;83;21166;-41
2021/01/09 00:18:39;;;;;;;17.62;12.82;;;;;;;3.25;64.47;100384.41;1713558;83;21161;-37
2021/01/09 00:21:07;;;;;;;18.62;13.55;;;;;;;3.21;64.55;100385.39;1709054;82;21150;-38
2021/01/09 00:23:35;;;;;;;18.92;12.65;;;;;;;3.21;64.59;100386.71;1712712;83;21149;-41
2021/01/09 00:26:03;;;;;;;18.75;13.48;;;;;;;3.23;64.66;100388.85;1713928;82;21133;-39
2021/01/09 00:28:31;;;;;;;19.45;13.05;;;;;;;3.23;64.69;100391.48;1706224;83;22217;-35
2021/01/09 00:30:58;;;;;;;19.27;13.25;;;;;;;3.23;64.71;100389.31;1713846;82;21129;-40
2021/01/09 00:33:26;;;;;;;16.75;12.53;;;;;;;3.21;64.70;100388.03;1712490;82;21129;-42
2021/01/09 00:35:56;;;;;;;19.35;12.90;;;;;;;3.21;64.78;100391.12;1705810;83;21477;-41
2021/01/09 00:38:23;;;;;;;17.82;12.90;;;;;;;3.16;64.88;100386.44;1713850;83;21147;-42
2021/01/09 00:40:51;;;;;;;18.37;13.03;;;;;;;3.17;64.94;100391.65;1709980;82;21126;-41
2021/01/09 00:43:18;;;;;;;18.50;12.55;;;;;;;3.20;65.10;100395.97;1709835;83;21597;-36
2021/01/09 00:45:46;;;;;;;17.65;13.78;;;;;;;3.21;65.08;100389.34;1709868;83;21579;-39
2021/01/09 00:48:13;;;;;;;17.35;13.03;;;;;;;3.22;65.05;100392.84;1710738;82;21620;-40
2021/01/09 00:50:41;;;;;;;18.55;14.05;;;;;;;3.20;65.10;100389.37;1709965;82;21153;-36
2021/01/09 00:53:09;;;;;;;16.25;13.00;;;;;;;3.20;65.14;100390.27;1710269;83;21582;-38
2021/01/09 00:55:36;;;;;;;18.60;13.68;;;;;;;3.21;65.18;100389.34;1710573;82;21549;-41
2021/01/09 00:58:04;;;;;;;20.65;13.60;;;;;;;3.23;65.14;100384.04;1709600;82;21668;-40
2021/01/09 01:00:33;;;;;;;15.88;12.90;;;;;;;3.22;65.18;100387.11;1715314;83;21584;-41
2021/01/09 01:03:02;;;;;;;16.70;12.43;;;;;;;3.24;65.17;100380.48;1717731;82;21525;-41
2021/01/09 01:05:29;;;;;;;15.85;12.07;;;;;;;3.24;65.23;100378.70;1707395;83;21142;-35
2021/01/09 01:07:57;;;;;;;17.98;13.15;;;;;;;3.27;65.21;100370.30;1712138;83;21185;-43
2021/01/09 01:10:24;;;;;;;17.45;12.05;;;;;;;3.27;65.28;100362.39;1714207;83;21106;-39
2021/01/09 01:12:52;;;;;;;18.60;13.88;;;;;;;3.28;65.27;100366.31;1709886;83;21157;-37
2021/01/09 01:15:20;;;;;;;17.60;12.75;;;;;;;3.29;65.29;100360.58;1702664;82;21141;-39
2021/01/09 01:17:48;;;;;;;20.45;13.48;;;;;;;3.30;65.22;100363.19;1702550;82;21194;-38
2021/01/09 01:20:16;;;;;;;17.25;11.83;;;;;;;3.30;65.27;100357.02;1706597;82;21585;-40
2021/01/09 01:22:46;;;;;;;18.40;13.43;;;;;;;3.31;65.30;100360.95;1699614;82;21146;-36
2021/01/09 01:25:14;;;;;;;17.37;13.28;;;;;;;3.31;65.32;100363.58;1691475;82;21136;-38
2021/01/09 01:27:41;;;;;;;17.07;13.48;;;;;;;3.34;65.38;100365.26;1698808;82;21880;-38
2021/01/09 01:30:10;;;;;;;18.02;13.25;;;;;;;3.33;65.42;100357.81;1706116;82;21493;-38
2021/01/09 01:32:37;;;;;;;16.67;12.73;;;;;;;3.34;65.52;100361.30;1697313;84;21165;-38
2021/01/09 01:35:06;;;;;;;18.57;14.23;;;;;;;3.35;65.63;100358.63;1697537;82;21154;-37
2021/01/09 01:37:34;;;;;;;19.17;14.40;;;;;;;3.37;65.72;100362.52;1697702;82;21170;-38
2021/01/09 01:40:05;;;;;;;18.00;13.88;;;;;;;3.39;65.75;100362.88;1702582;82;21150;-39
2021/01/09 01:42:33;;;;;;;19.25;13.88;;;;;;;3.43;65.73;100359.25;1695903;84;21161;-37
2021/01/09 01:45:02;;;;;;;17.40;13.68;;;;;;;3.46;65.59;100357.83;1695602;82;21179;-41
2021/01/09 01:47:30;;;;;;;19.30;13.88;;;;;;;3.47;65.61;100358.69;1699115;82;21138;-36
2021/01/09 01:49:58;;;;;;;17.95;13.55;;;;;;;3.50;65.65;100356.41;1705014;82;21146;-38
2021/01/09 01:52:25;;;;;;;18.73;13.62;;;;;;;3.50;65.66;100357.27;1668011;84;21150;-37
2021/01/09 01:54:53;;;;;;;18.00;13.58;;;;;;;3.48;65.66;100353.84;1695828;84;21147;-38
2021/01/09 01:57:20;;;;;;;18.12;13.30;;;;;;;3.47;65.62;100352.95;1702472;82;21181;-39
2021/01/09 01:59:48;;;;;;;19.60;14.25;;;;;;;3.46;65.60;100350.39;1698220;82;21158;-40
2021/01/09 02:02:16;;;;;;;20.02;15.10;;;;;;;3.44;65.54;100346.46;1696478;82;21138;-38
2021/01/09 02:04:48;;;;;;;22.58;16.10;;;;;;;3.41;65.70;100347.89;1705447;82;21154;-38
2021/01/09 02:07:19;;;;;;;21.33;14.73;;;;;;;3.42;65.79;100352.70;1696707;82;21154;-38
2021/01/09 02:09:48;;;;;;;20.97;16.37;;;;;;;3.44;65.74;100348.25;1695280;84;21151;-40
2021/01/09 02:12:42;;;;;;;19.65;14.00;;;;;;;3.44;65.86;100345.14;1708259;82;21486;-39
2021/01/09 02:15:10;;;;;;;18.17;14.53;;;;;;;3.49;65.92;100342.83;1705385;82;21157;-38
2021/01/09 02:17:40;;;;;;;19.87;13.20;;;;;;;3.51;65.88;100344.52;1711025;83;21572;-40
2021/01/09 02:20:08;;;;;;;19.70;14.75;;;;;;;3.53;65.89;100341.38;1714671;82;21494;-40
2021/01/09 02:22:45;;;;;;;19.48;14.05;;;;;;;3.55;65.94;100343.48;1687198;83;21153;-41
2021/01/09 02:25:12;;;;;;;17.85;13.10;;;;;;;3.56;65.81;100339.09;1707353;82;21275;-40
2021/01/09 02:27:41;;;;;;;19.05;14.03;;;;;;;3.55;65.81;100335.57;1709906;82;21431;-40
2021/01/09 02:30:13;;;;;;;17.10;13.03;;;;;;;3.55;65.74;100332.94;1706838;82;21142;-39
2021/01/09 02:32:52;;;;;;;16.42;12.63;;;;;;;3.54;65.78;100336.50;1713778;83;21162;-41
2021/01/09 02:35:21;;;;;;;18.87;14.07;;;;;;;3.54;65.83;100336.50;1707779;82;21557;-40
2021/01/09 02:37:48;;;;;;;17.90;13.85;;;;;;;3.56;65.77;100332.50;1710652;82;21185;-38
2021/01/09 02:40:18;;;;;;;19.15;14.23;;;;;;;3.55;65.75;100332.08;1708961;82;21149;-41
2021/01/09 02:42:46;;;;;;;20.95;15.20;;;;;;;3.55;65.85;100329.44;1711795;83;21208;-39
2021/01/09 02:45:15;;;;;;;20.02;14.30;;;;;;;3.53;65.87;100329.94;1712904;82;21161;-39
2021/01/09 02:47:42;;;;;;;19.67;14.23;;;;;;;3.53;65.87;100330.83;1713236;83;21137;-40
2021/01/09 02:50:11;;;;;;;20.08;14.33;;;;;;;3.53;65.84;100328.19;1654219;85;21590;-43
2021/01/09 02:52:40;;;;;;;20.15;14.80;;;;;;;3.52;65.77;100323.81;1715252;83;21142;-41
2021/01/09 02:55:08;;;;;;;19.95;14.55;;;;;;;3.50;65.77;100328.27;1715321;82;21154;-39
2021/01/09 02:57:36;;;;;;;19.07;13.45;;;;;;;3.42;65.83;100327.19;1714117;82;21137;-37
2021/01/09 03:00:06;;;;;;;19.77;14.65;;;;;;;3.39;65.99;100327.30;1714384;82;21126;-39
2021/01/09 03:02:34;;;;;;;21.25;15.23;;;;;;;3.41;66.01;100323.30;1713542;83;21173;-40
2021/01/09 03:05:04;;;;;;;19.52;14.33;;;;;;;3.43;66.00;100326.30;1709194;83;21569;-37
2021/01/09 03:07:31;;;;;;;21.55;15.35;;;;;;;3.44;65.98;100323.20;1715151;82;21157;-42
2021/01/09 03:09:59;;;;;;;18.70;15.00;;;;;;;3.44;65.97;100321.42;1715349;83;21633;-40
2021/01/09 03:12:26;;;;;;;17.65;14.35;;;;;;;3.44;66.04;100327.16;1714217;82;21566;-38
2021/01/09 03:14:54;;;;;;;19.65;13.80;;;;;;;3.42;66.02;100323.70;1709562;82;21189;-39
2021/01/09 03:17:21;;;;;;;20.90;14.80;;;;;;;3.40;66.09;100330.78;1698998;82;21150;-38
2021/01/09 03:19:49;;;;;;;19.95;14.53;;;;;;;3.39;66.16;100327.75;1641160;85;21153;-39
2021/01/09 03:22:16;;;;;;;20.00;15.05;;;;;;;3.40;66.16;100327.72;1628487;86;21465;-39
2021/01/09 03:24:44;;;;;;;19.92;14.75;;;;;;;3.42;66.15;100326.33;1695024;84;21150;-41
2021/01/09 03:27:12;;;;;;;22.95;16.62;;;;;;;3.43;66.16;100327.61;1702580;82;21146;-37
2021/01/09 03:29:40;;;;;;;21.33;15.08;;;;;;;3.42;66.27;100329.83;1701533;84;21668;-38
2021/01/09 03:32:07;;;;;;;21.65;15.65;;;;;;;3.42;66.26;100331.14;1699498;82;21181;-42
2021/01/09 03:34:35;;;;;;;18.23;14.40;;;;;;;3.40;66.25;100325.08;1706647;82;21130;-41
2021/01/09 03:37:02;;;;;;;18.12;14.55;;;;;;;3.41;66.27;100326.80;1697348;82;21438;-43
2021/01/09 03:39:31;;;;;;;21.00;14.85;;;;;;;3.42;66.26;100325.87;1702908;84;22173;-40
2021/01/09 03:41:58;;;;;;;17.52;13.20;;;;;;;3.42;66.38;100327.19;1703363;82;21194;-41
2021/01/09 03:44:26;;;;;;;18.87;14.45;;;;;;;3.44;66.38;100324.52;1698331;84;21169;-38
2021/01/09 03:46:53;;;;;;;21.17;15.43;;;;;;;3.46;66.38;100330.61;1700428;82;21158;-39
2021/01/09 03:49:21;;;;;;;20.27;14.98;;;;;;;3.47;66.40;100328.37;1701165;82;21142;-42
2021/01/09 03:51:49;;;;;;;19.87;14.83;;;;;;;3.45;66.32;100326.23;1700475;82;21177;-39
2021/01/09 03:54:17;;;;;;;19.98;15.32;;;;;;;3.44;66.35;100332.42;1701380;82;21181;-41
2021/01/09 03:56:45;;;;;;;18.45;13.98;;;;;;;3.43;66.39;100335.98;1705679;82;21138;-38
2021/01/09 03:59:12;;;;;;;20.00;14.25;;;;;;;3.43;66.40;100332.89;1700596;84;21150;-40
2021/01/09 04:01:39;;;;;;;20.92;15.28;;;;;;;3.44;66.42;100335.92;1699670;84;21177;-39
2021/01/09 04:04:07;;;;;;;18.90;13.98;;;;;;;3.46;66.40;100334.56;1702510;82;21158;-40
2021/01/09 04:06:36;;;;;;;20.45;15.23;;;;;;;3.45;66.41;100338.98;1701687;82;21661;-42
2021/01/09 04:09:04;;;;;;;18.75;13.78;;;;;;;3.43;66.48;100335.98;1698247;82;21146;-39
2021/01/09 04:11:31;;;;;;;21.57;15.95;;;;;;;3.40;66.62;100336.95;1702424;82;21138;-44
2021/01/09 04:14:01;;;;;;;18.62;14.40;;;;;;;3.39;66.67;100336.52;1702621;84;21150;-40
2021/01/09 04:16:31;;;;;;;20.62;15.15;;;;;;;3.42;66.72;100339.05;1702514;82;21127;-41
2021/01/09 04:18:59;;;;;;;18.37;14.40;;;;;;;3.45;66.67;100338.09;1663920;84;21573;-38
2021/01/09 04:21:27;;;;;;;21.12;14.55;;;;;;;3.46;66.69;100339.38;1679588;85;21185;-41
2021/01/09 04:23:54;;;;;;;17.32;13.68;;;;;;;3.48;66.57;100341.98;1676491;84;21180;-41
2021/01/09 04:26:22;;;;;;;24.25;16.50;;;;;;;3.51;66.56;100348.47;1677889;84;21152;-40
2021/01/09 04:28:50;;;;;;;21.85;15.13;;;;;;;3.51;66.54;100348.47;1653238;85;21165;-39
2021/01/09 04:31:17;;;;;;;21.87;16.23;;;;;;;3.52;66.60;100353.28;1676551;84;21561;-41
2021/01/09 04:33:45;;;;;;;22.30;15.30;;;;;;;3.51;66.57;100352.88;1671994;84;21178;-43
2021/01/09 04:36:12;;;;;;;21.50;15.60;;;;;;;3.50;66.53;100357.27;1674858;84;21589;-41
2021/01/09 04:38:39;;;;;;;23.42;16.95;;;;;;;3.50;66.54;100355.09;1678132;84;21182;-41
2021/01/09 04:41:07;;;;;;;22.27;17.17;;;;;;;3.47;66.62;100351.63;1680699;84;21593;-39
2021/01/09 04:43:34;;;;;;;23.02;15.95;;;;;;;3.47;66.72;100352.09;1652010;84;21192;-40
2021/01/09 04:46:02;;;;;;;22.65;16.27;;;;;;;3.48;66.68;100351.20;1675623;85;21168;-42
2021/01/09 04:48:31;;;;;;;22.70;15.13;;;;;;;3.46;66.78;100355.66;1673833;84;21176;-42
2021/01/09 04:50:59;;;;;;;22.32;16.50;;;;;;;3.42;66.85;100354.02;1675303;84;21172;-39
2021/01/09 04:53:26;;;;;;;24.20;16.97;;;;;;;3.42;66.96;100353.55;1677670;84;21520;-38
2021/01/09 04:55:54;;;;;;;22.15;16.52;;;;;;;3.44;66.89;100357.01;1673954;85;21152;-40
2021/01/09 04:58:21;;;;;;;22.27;15.25;;;;;;;3.43;66.88;100357.94;1627166;85;21184;-37
2021/01/09 05:00:54;;;;;;;20.90;15.48;;;;;;;3.41;66.89;100362.39;1677373;84;21149;-38
2021/01/09 05:03:19;;;;;;;22.35;15.85;;;;;;;3.41;67.00;100357.58;1674716;84;21696;-39
2021/01/09 05:05:48;;;;;;;20.62;15.30;;;;;;;3.39;66.96;100356.30;1651587;85;21129;-39
2021/01/09 05:08:16;;;;;;;21.73;15.55;;;;;;;3.36;66.98;100355.08;1678083;84;21161;-37
2021/01/09 05:10:43;;;;;;;21.87;17.15;;;;;;;3.37;67.05;100365.16;1674933;84;21149;-40
2021/01/09 05:13:12;;;;;;;21.95;15.30;;;;;;;3.35;67.14;100369.18;1675329;84;21160;-39
2021/01/09 05:15:39;;;;;;;20.80;16.30;;;;;;;3.34;67.12;100368.75;1678039;84;21165;-39
2021/01/09 05:18:07;;;;;;;22.02;16.57;;;;;;;3.34;67.18;100375.34;1695400;83;21153;-43
2021/01/09 05:20:34;;;;;;;24.43;16.80;;;;;;;3.35;67.23;100378.83;1713358;83;21625;-39
2021/01/09 05:23:02;;;;;;;21.95;16.20;;;;;;;3.35;67.34;100381.04;1714302;82;21145;-39
2021/01/09 05:25:30;;;;;;;23.35;16.95;;;;;;;3.37;67.29;100385.78;1709563;83;21134;-42
2021/01/09 05:27:58;;;;;;;21.35;16.97;;;;;;;3.37;67.25;100382.30;1717018;83;21292;-37
2021/01/09 05:30:26;;;;;;;21.45;16.05;;;;;;;3.38;67.29;100380.94;1714173;83;21145;-39
2021/01/09 05:32:53;;;;;;;23.12;16.35;;;;;;;3.37;67.23;100383.15;1715095;82;21118;-40
2021/01/09 05:35:21;;;;;;;21.30;15.45;;;;;;;3.39;67.22;100385.75;1715443;82;21157;-43
2021/01/09 05:37:48;;;;;;;23.65;17.07;;;;;;;3.38;67.24;100387.99;1709748;83;21474;-40
2021/01/09 05:40:17;;;;;;;19.23;15.43;;;;;;;3.36;67.24;100389.34;1707787;82;21554;-38
2021/01/09 05:42:45;;;;;;;22.15;16.67;;;;;;;3.38;67.23;100382.26;1709757;82;21170;-40
2021/01/09 05:45:13;;;;;;;22.22;15.20;;;;;;;3.39;67.30;100394.98;1713434;82;21169;-39
2021/01/09 05:47:41;;;;;;;20.88;15.85;;;;;;;3.42;67.33;100401.01;1691026;83;21173;-39
2021/01/09 05:50:09;;;;;;;19.95;14.47;;;;;;;3.45;67.18;100391.71;1714216;83;21182;-50
2021/01/09 05:52:39;;;;;;;22.17;15.78;;;;;;;3.47;67.12;100402.20;1710502;83;21181;-38
2021/01/09 05:55:07;;;;;;;22.02;16.15;;;;;;;3.45;67.01;100406.64;1648315;85;21177;-41
2021/01/09 05:57:36;;;;;;;21.95;16.10;;;;;;;3.47;67.09;100406.15;1673157;84;21165;-40
2021/01/09 06:00:07;;;;;;;21.30;16.55;;;;;;;3.48;67.10;100409.22;1710248;82;21153;-41
2021/01/09 06:03:16;;;;;;;24.10;17.90;;;;;;;3.50;67.07;100411.78;1714581;82;21675;-40
2021/01/09 06:05:46;;;;;;;22.85;17.37;;;;;;;3.50;67.01;100409.14;1707724;82;21142;-37
2021/01/09 06:08:19;;;;;;;23.15;17.62;;;;;;;3.49;67.00;100419.30;1709726;82;21578;-40
2021/01/09 06:10:47;;;;;;;24.12;16.50;;;;;;;3.45;67.10;100419.40;1697906;82;21157;-39
2021/01/09 06:13:14;;;;;;;20.97;16.15;;;;;;;3.46;67.11;100424.21;1703905;83;21142;-41
2021/01/09 06:15:43;;;;;;;23.00;16.42;;;;;;;3.45;67.17;100432.58;1684845;83;21153;-40
2021/01/09 06:18:11;;;;;;;24.18;17.75;;;;;;;3.48;67.16;100436.90;1689343;83;21174;-40
2021/01/09 06:20:39;;;;;;;19.92;15.43;;;;;;;3.45;67.12;100430.37;1666143;84;21121;-40
2021/01/09 06:23:06;;;;;;;20.55;16.07;;;;;;;3.45;67.16;100435.64;1695280;84;21150;-39
2021/01/09 06:25:35;;;;;;;23.83;17.20;;;;;;;3.45;67.21;100437.85;1684464;83;21135;-38
2021/01/09 06:28:04;;;;;;;22.73;16.57;;;;;;;3.49;67.29;100436.44;1693671;84;21114;-40
2021/01/09 06:30:34;;;;;;;18.42;14.68;;;;;;;3.52;67.25;100435.02;1662232;82;21178;-39
2021/01/09 06:33:03;;;;;;;;;;;;;;;3.53;67.16;100440.69;1659884;84;21145;-39
2021/01/09 06:35:33;;;;;;;20.23;14.98;;;;;;;3.55;67.14;100442.83;1693744;82;20180;-41
2021/01/09 06:38:01;;;;;;;19.85;15.08;;;;;;;3.55;67.15;100442.37;1699724;84;21588;-43
2021/01/09 06:40:29;;;;;;;21.02;16.05;;;;;;;3.50;67.20;100442.11;1700398;82;21154;-41
2021/01/09 06:42:57;;;;;;;23.27;16.17;;;;;;;3.48;67.26;100444.81;1691021;82;21118;-39
2021/01/09 06:45:25;;;;;;;22.30;15.25;;;;;;;3.46;67.34;100438.71;1700330;82;21158;-40
2021/01/09 06:47:59;;;;;;;22.52;16.35;;;;;;;3.45;67.39;100440.48;1664650;84;21169;-41
2021/01/09 06:50:32;;;;;;;21.87;16.57;;;;;;;3.44;67.51;100443.16;1699884;82;21146;-42
2021/01/09 06:53:02;;;;;;;24.67;18.40;;;;;;;3.46;67.51;100445.30;1696989;82;21142;-41
2021/01/09 06:55:41;;;;;;;21.15;16.57;;;;;;;3.45;67.60;100443.55;1697521;82;21508;-39
2021/01/09 06:58:10;;;;;;;23.73;16.15;;;;;;;3.45;67.61;100446.19;1697820;82;21184;-40
2021/01/09 07:00:37;;;;;;;23.27;16.02;;;;;;;3.46;67.64;100445.30;1708619;82;21153;-45
2021/01/09 07:03:18;;;;;;;22.55;16.25;;;;;;;3.48;67.61;100451.40;1705444;82;21570;-46
2021/01/09 07:05:54;;;;;;;23.27;16.82;;;;;;;3.50;67.70;100453.52;1699869;82;21194;-38
2021/01/09 07:08:29;;;;;;;23.05;17.35;;;;;;;3.52;67.66;100454.34;1709632;82;21154;-42
2021/01/09 07:11:00;;;;;;;26.42;18.87;;;;;;;3.53;67.56;100458.72;1702776;82;21111;-42
2021/01/09 07:13:27;;;;;;;22.65;16.25;;;;;;;3.51;67.49;100458.36;1699205;82;21158;-41
2021/01/09 07:16:12;;;;;;;25.70;18.42;;;;;;;3.47;67.56;100461.52;1692158;82;21130;-41
2021/01/09 07:18:42;;;;;;;23.60;17.80;;;;;;;3.48;67.57;100464.59;1697494;83;21164;-40
2021/01/09 07:21:11;;;;;;;24.05;17.67;;;;;;;3.49;67.66;100457.07;1679146;84;22208;-40
2021/01/09 07:23:39;;;;;;;25.50;19.12;;;;;;;3.50;67.64;100465.84;1652609;84;21173;-40
2021/01/09 07:26:06;;;;;;;23.62;16.93;;;;;;;3.47;67.64;100464.16;1671217;84;21835;-41
2021/01/09 07:28:35;;;;;;;24.90;17.77;;;;;;;3.44;67.70;100462.47;1610535;85;21172;-40
2021/01/09 07:31:08;;;;;;;25.48;17.32;;;;;;;3.44;67.74;100468.20;1676946;84;21144;-39
2021/01/09 07:33:37;;;;;;;23.50;16.02;;;;;;;3.44;67.78;100466.89;1693696;83;21152;-38
2021/01/09 07:36:07;;;;;;;22.75;16.93;;;;;;;3.44;67.73;100469.52;1692142;83;21311;-40
2021/01/09 07:38:34;;;;;;;23.25;16.93;;;;;;;3.43;67.81;100464.72;1680372;84;21149;-43
2021/01/09 07:41:02;;;;;;;26.40;18.07;;;;;;;3.42;67.79;100470.02;1624390;84;21286;-40
2021/01/09 07:43:38;;;;;;;23.10;16.55;;;;;;;3.42;67.84;100472.20;1694106;83;21136;-37
2021/01/09 07:46:30;;;;;;;23.73;17.00;;;;;;;3.44;67.74;100471.70;1694339;83;22090;-42
2021/01/09 07:49:00;;;;;;;25.52;18.57;;;;;;;3.41;67.85;100475.75;1676803;84;21176;-41
2021/01/09 07:51:52;;;;;;;22.40;15.88;;;;;;;3.42;67.96;100468.23;1695797;83;21611;-37
2021/01/09 07:54:37;;;;;;;24.57;17.05;;;;;;;3.45;67.93;100469.92;1691538;83;21160;-46
2021/01/09 07:57:21;;;;;;;24.77;17.50;;;;;;;3.46;67.86;100475.16;1691196;83;21575;-40
2021/01/09 08:00:01;;;;;;;24.05;16.90;;;;;;;3.47;67.89;100481.30;1693013;83;21156;-40
2021/01/09 08:02:36;;;;;;;23.38;17.05;;;;;;;3.41;67.94;100478.39;1695527;83;21556;-41
2021/01/09 08:05:15;;;;;;;21.37;15.53;;;;;;;3.38;68.11;100479.80;1689254;84;21572;-42
2021/01/09 08:07:54;;;;;;;22.25;17.23;;;;;;;3.39;68.06;100480.20;1691428;83;21192;-42
2021/01/09 08:10:31;;;;;;;22.73;17.33;;;;;;;3.42;68.01;100486.70;1692478;83;21457;-42
2021/01/09 08:13:01;;;;;;;22.82;16.60;;;;;;;3.43;67.99;100483.63;1679394;84;21314;-40
2021/01/09 08:15:30;;;;;;;26.02;16.80;;;;;;;3.39;68.00;100484.16;1691571;83;21184;-41
2021/01/09 08:18:05;;;;;;;25.17;18.50;;;;;;;3.38;68.05;100488.17;1680052;84;21170;-41
2021/01/09 08:20:33;;;;;;;23.95;16.75;;;;;;;3.36;68.06;100489.52;1693101;83;21184;-40
2021/01/09 08:23:03;;;;;;;26.93;17.48;;;;;;;3.38;68.07;100485.08;1698005;84;21162;-41
2021/01/09 08:25:37;;;;;;;25.17;17.37;;;;;;;3.38;68.01;100481.13;1698636;82;21183;-38
2021/01/09 08:28:05;;;;;;;24.23;17.98;;;;;;;3.36;68.07;100485.56;1691067;82;21154;-39
2021/01/09 08:30:35;;;;;;;24.75;16.60;;;;;;;3.32;68.16;100486.55;1697624;82;21161;-42
2021/01/09 08:33:08;;;;;;;19.35;15.85;;;;;;;3.31;68.34;100487.94;1697713;82;21190;-38
2021/01/09 08:35:46;;;;;;;21.60;16.05;;;;;;;3.32;68.31;100487.02;1692661;82;21133;-40
2021/01/09 08:38:13;;;;;;;21.85;16.12;;;;;;;3.35;68.36;100481.64;1693397;82;21649;-40
2021/01/09 08:40:44;;;;;;;25.60;17.82;;;;;;;3.40;68.43;100480.63;1698383;82;21166;-41
2021/01/09 08:43:13;;;;;;;21.25;15.68;;;;;;;3.43;68.35;100479.67;1695402;84;21163;-39
2021/01/09 08:45:52;;;;;;;23.70;16.77;;;;;;;3.41;68.34;100478.85;1701427;83;21178;-42
2021/01/09 08:48:28;;;;;;;19.98;15.55;;;;;;;3.38;68.51;100473.67;1701177;84;21122;-43
2021/01/09 08:51:08;;;;;;;25.05;18.05;;;;;;;3.35;68.71;100471.98;1697191;82;21142;-39
2021/01/09 08:54:03;;;;;;;25.88;17.10;;;;;;;3.33;69.29;100475.12;1703001;82;21613;-40
2021/01/09 08:56:33;;;;;;;23.50;15.90;;;;;;;3.27;70.12;100475.27;1678582;83;21178;-39
2021/01/09 08:59:05;;;;;;;23.90;16.73;;;;;;;3.29;70.58;100471.29;1696844;84;21605;-39
2021/01/09 09:01:40;;;;;;;19.40;14.65;;;;;;;3.30;70.69;100472.58;1697952;82;21149;-41
2021/01/09 09:04:08;;;;;;;23.52;17.05;;;;;;;3.30;70.79;100468.63;1702057;84;21276;-45
2021/01/09 09:06:36;;;;;;;23.45;18.85;;;;;;;3.33;70.92;100465.03;1702070;84;21122;-42
2021/01/09 09:09:05;;;;;;;25.37;18.65;;;;;;;3.36;70.88;100462.30;1641646;85;21651;-41
2021/01/09 09:11:32;;;;;;;21.37;17.57;;;;;;;3.39;70.71;100464.37;1641395;86;21189;-40
2021/01/09 09:14:09;;;;;;;26.00;16.73;;;;;;;3.41;70.59;100459.94;1662301;84;21802;-46
2021/01/09 09:16:38;;;;;;;22.70;16.45;;;;;;;3.45;70.40;100456.73;1693732;82;21143;-43
2021/01/09 09:19:17;;;;;;;24.37;17.87;;;;;;;3.50;69.91;100458.78;1695455;82;21677;-46
2021/01/09 09:21:46;;;;;;;23.92;16.57;;;;;;;3.54;69.62;100458.26;1692974;82;21170;-44
2021/01/09 09:24:16;;;;;;;24.00;17.55;;;;;;;3.56;69.31;100468.31;1697160;82;21638;-39
2021/01/09 09:26:44;;;;;;;24.07;18.20;;;;;;;3.54;68.87;100464.84;1698354;82;21292;-39
2021/01/09 09:29:13;;;;;;;21.27;15.10;;;;;;;3.48;68.95;100461.95;1693361;84;21154;-37
2021/01/09 09:31:44;;;;;;;21.73;15.58;;;;;;;3.49;68.94;100461.48;1696243;84;21134;-38
2021/01/09 09:34:14;;;;;;;21.00;16.17;;;;;;;3.55;68.95;100452.06;1700857;82;21165;-40
2021/01/09 09:36:53;;;;;;;20.62;16.07;;;;;;;3.58;68.90;100451.96;1642398;86;21141;-43
2021/01/09 09:39:22;;;;;;;24.25;16.75;;;;;;;3.60;68.68;100452.36;1695744;82;21236;-41
2021/01/09 09:41:59;;;;;;;25.02;17.75;;;;;;;3.64;68.40;100446.52;1699919;82;21197;-39
2021/01/09 09:44:45;;;;;;;20.30;14.68;;;;;;;3.64;68.18;100439.92;1702065;82;21174;-43
2021/01/09 09:47:28;;;;;;;20.77;14.63;;;;;;;3.63;67.81;100439.07;1694435;84;21860;-40
2021/01/09 09:49:59;;;;;;;22.50;15.23;;;;;;;3.64;67.54;100438.15;1697051;82;21618;-42
2021/01/09 09:52:27;;;;;;;22.65;15.20;;;;;;;3.64;67.15;100436.83;1700271;82;21142;-40
2021/01/09 09:55:04;;;;;;;20.75;13.32;;;;;;;3.65;66.76;100428.45;1703365;82;21645;-40
2021/01/09 09:57:32;;;;;;;17.82;13.50;;;;;;;3.65;66.52;100431.98;1697611;84;21191;-41
2021/01/09 10:00:15;;;;;;;15.53;11.50;;;;;;;3.66;66.08;100429.73;1698169;82;21166;-41
2021/01/09 10:02:54;;;;;;;18.98;13.38;;;;;;;3.70;65.90;100427.86;1695277;82;21578;-42
2021/01/09 10:05:24;;;;;;;15.80;12.58;;;;;;;3.70;65.35;100423.90;1694883;82;21158;-41
2021/01/09 10:08:13;;;;;;;17.67;12.15;;;;;;;3.68;64.92;100429.24;1699520;82;21141;-41
2021/01/09 10:10:43;;;;;;;17.48;12.55;;;;;;;3.66;64.52;100428.42;1698164;82;21126;-40
2021/01/09 10:13:27;;;;;;;19.23;15.58;;;;;;;3.66;63.94;100423.14;1785103;79;28870;-40
2021/01/09 10:15:58;;;;;;;17.77;12.37;;;;;;;3.57;63.99;100429.15;1778811;79;21597;-39
2021/01/09 10:18:26;;;;;;;14.18;11.03;;;;;;;3.55;63.81;100429.64;1783574;78;21654;-40
2021/01/09 10:20:53;;;;;;;16.40;11.43;;;;;;;3.54;64.11;100430.56;1779725;80;21154;-41
2021/01/09 10:23:22;;;;;;;15.70;11.70;;;;;;;3.57;64.35;100430.01;1780355;79;21145;-41
2021/01/09 10:25:49;;;;;;;16.82;13.00;;;;;;;3.60;64.12;100427.73;1784877;79;21141;-41
2021/01/09 10:28:17;;;;;;;16.48;12.20;;;;;;;3.59;64.16;100424.23;1784655;79;21144;-39
2021/01/09 10:30:47;;;;;;;17.80;12.43;;;;;;;3.59;64.17;100428.20;1782517;79;21142;-40
2021/01/09 10:33:16;;;;;;;17.20;12.43;;;;;;;3.61;64.16;100424.20;1785282;80;21154;-40
2021/01/09 10:35:47;;;;;;;17.70;12.00;;;;;;;3.63;63.77;100421.07;1782328;78;21839;-39
2021/01/09 10:38:16;;;;;;;16.77;12.90;;;;;;;3.61;63.33;100415.83;1783638;80;21142;-40
2021/01/09 10:40:44;;;;;;;18.17;14.30;;;;;;;3.60;63.21;100423.77;1781010;80;21147;-40
2021/01/09 10:43:12;;;;;;;15.53;12.37;;;;;;;3.58;63.27;100426.91;1783643;79;21158;-42
2021/01/09 10:45:40;;;;;;;14.05;10.72;;;;;;;3.55;63.46;100425.23;1783315;79;21129;-42
2021/01/09 10:48:08;;;;;;;18.10;12.82;;;;;;;3.55;63.61;100427.01;1781569;80;21123;-39
2021/01/09 10:50:36;;;;;;;16.60;12.00;;;;;;;3.57;63.31;100430.47;1786286;79;21641;-39
2021/01/09 10:53:05;;;;;;;17.10;11.85;;;;;;;3.57;62.95;100414.19;1785372;80;21109;-41
2021/01/09 10:55:35;;;;;;;18.10;13.68;;;;;;;3.59;63.20;100423.37;1780223;79;21135;-38
2021/01/09 10:58:02;;;;;;;14.65;11.03;;;;;;;3.62;63.25;100415.37;1784653;78;21294;-40
2021/01/09 11:00:30;;;;;;;18.82;13.38;;;;;;;3.64;63.06;100409.59;1784652;78;21145;-38
2021/01/09 11:02:59;;;;;;;16.50;11.30;;;;;;;3.66;62.80;100411.27;1776974;79;21489;-42
2021/01/09 11:05:30;;;;;;;16.60;12.10;;;;;;;3.67;62.76;100414.30;1783426;78;21138;-37
2021/01/09 11:07:56;;;;;;;16.30;12.75;;;;;;;3.68;62.42;100410.78;1781563;79;21101;-42
2021/01/09 11:10:25;;;;;;;17.42;13.13;;;;;;;3.69;62.36;100409.00;1783106;79;21138;-39
2021/01/09 11:12:54;;;;;;;18.15;13.25;;;;;;;3.74;62.30;100403.58;1773422;79;21656;-40
2021/01/09 11:15:22;;;;;;;17.92;14.18;;;;;;;3.72;62.03;100404.94;1774772;79;21120;-40
2021/01/09 11:17:50;;;;;;;17.67;14.03;;;;;;;3.73;62.22;100407.11;1779710;79;21153;-39
2021/01/09 11:20:18;;;;;;;19.27;13.48;;;;;;;3.74;62.19;100409.72;1780976;80;21134;-37
2021/01/09 11:22:46;;;;;;;19.40;13.38;;;;;;;3.75;62.22;100406.16;1771660;79;21259;-39
2021/01/09 11:25:13;;;;;;;19.52;14.43;;;;;;;3.77;62.26;100414.89;1778467;80;21176;-41
2021/01/09 11:27:41;;;;;;;19.55;13.75;;;;;;;3.78;62.06;100415.75;1779035;80;21102;-38
2021/01/09 11:30:10;;;;;;;16.85;12.73;;;;;;;3.78;61.82;100415.75;1778599;79;21134;-40